Airport Name : Quonset State

Other Name : Quonset State

ICAO : KOQU

IATA :

FAA : OQU

Latitude : 41.597139

Longitude : -71.412139

Country : United States

Local Date and Time : 19 Sep 2020 17:16

 

TAF (Terminal Aerodrome Forecast)

 

METAR (METeorological Aerodrome Report)

KOQU 192050Z 02013KT 10SM SKC 18/M01 A3028 RMK LAST

KOQU 191950Z 06013KT 10SM SKC 17/M01 A3027

KOQU 191850Z 06013KT 10SM SKC 17/M02 A3028

KOQU 191755Z 06012KT 10SM SKC 17/M01 A3030

To Charter a Jet Click here.